createdAt,value
2023-04-22T00:00:22.252Z,70.20
2023-04-22T00:01:22.603Z,69.90
2023-04-22T00:02:22.259Z,70.20
2023-04-22T00:03:22.535Z,69.90
2023-04-22T00:04:22.397Z,70.20
2023-04-22T00:05:22.209Z,70.51
2023-04-22T00:06:22.531Z,70.72
2023-04-22T00:07:22.160Z,70.54
2023-04-22T00:08:22.160Z,71.05
2023-04-22T00:09:22.159Z,70.85
2023-04-22T00:10:22.132Z,71.56
2023-04-22T00:11:22.461Z,70.14
2023-04-22T00:12:22.108Z,70.23
2023-04-22T00:13:22.103Z,70.23
2023-04-22T00:14:22.094Z,70.54
2023-04-22T00:15:22.078Z,71.05
2023-04-22T00:16:22.503Z,70.75
2023-04-22T00:18:47.539Z,71.15
2023-04-22T00:18:53.051Z,70.75
2023-04-22T00:19:53.061Z,70.85
2023-04-22T00:20:53.068Z,71.77
2023-04-22T00:21:53.007Z,72.00
2023-04-22T00:22:53.008Z,70.78
2023-04-22T00:23:52.991Z,70.98
2023-04-22T00:24:52.988Z,71.19
2023-04-22T00:25:53.310Z,71.29
2023-04-22T00:26:52.976Z,70.68
2023-04-22T00:27:52.955Z,70.88
2023-04-22T00:28:52.993Z,70.23
2023-04-22T00:29:52.926Z,70.64
2023-04-22T00:30:53.309Z,70.75
2023-04-22T00:31:53.007Z,70.64
2023-04-22T00:32:52.957Z,69.59
2023-04-22T00:33:52.889Z,69.29
2023-04-22T00:34:52.880Z,68.84
2023-04-22T00:35:53.246Z,68.33
2023-04-22T00:36:52.864Z,68.23
2023-04-22T00:37:52.843Z,68.10
2023-04-22T00:38:52.835Z,68.30
2023-04-22T00:39:52.819Z,67.99
2023-04-22T00:40:53.252Z,67.99
2023-04-22T00:41:52.804Z,68.23
2023-04-22T00:42:52.807Z,67.93
2023-04-22T00:43:52.788Z,67.79
2023-04-22T00:44:52.772Z,67.69
2023-04-22T00:45:53.424Z,67.79
2023-04-22T00:46:52.869Z,67.59
2023-04-22T00:47:52.795Z,67.99
2023-04-22T00:48:52.740Z,68.10
2023-04-22T00:49:52.719Z,68.64
2023-04-22T00:50:53.473Z,68.23
2023-04-22T00:51:52.698Z,68.54
2023-04-22T00:52:52.695Z,68.23
2023-04-22T00:53:52.678Z,68.33
2023-04-22T00:54:52.674Z,68.54
2023-04-22T00:55:53.340Z,68.33
2023-04-22T00:56:52.686Z,69.15
2023-04-22T00:57:52.654Z,68.84
2023-04-22T00:58:52.633Z,69.69
2023-04-22T00:59:52.623Z,69.79
2023-04-22T01:00:52.897Z,70.10
2023-04-22T01:01:52.684Z,70.20
2023-04-22T01:02:52.701Z,70.61
2023-04-22T01:03:53.151Z,70.75
2023-04-22T01:04:52.572Z,71.05
2023-04-22T01:05:53.310Z,71.46
2023-04-22T01:06:52.561Z,71.50
2023-04-22T01:07:52.538Z,71.91
2023-04-22T01:08:52.533Z,71.80
2023-04-22T01:09:52.522Z,71.39
2023-04-22T01:10:53.345Z,71.59
2023-04-22T01:11:52.495Z,72.00
2023-04-22T01:12:52.503Z,72.62
2023-04-22T01:13:52.474Z,72.62
2023-04-22T01:14:52.475Z,73.06
2023-04-22T01:15:53.058Z,73.27
2023-04-22T01:16:52.473Z,73.47
2023-04-22T01:17:52.507Z,73.91
2023-04-22T01:18:52.431Z,73.50
2023-04-22T01:19:52.418Z,74.11
2023-04-22T01:20:53.103Z,74.11
2023-04-22T01:21:52.400Z,73.91
2023-04-22T01:22:52.393Z,73.91
2023-04-22T01:23:52.376Z,74.02
2023-04-22T01:24:52.375Z,74.11
2023-04-22T01:25:53.142Z,74.43
2023-04-22T01:26:52.349Z,74.32
2023-04-22T01:27:52.334Z,74.11
2023-04-22T01:28:52.328Z,73.91
2023-04-22T01:29:52.329Z,73.91
2023-04-22T01:30:53.293Z,74.32
2023-04-22T01:31:52.362Z,74.11
2023-04-22T01:32:52.374Z,74.22
2023-04-22T01:33:52.276Z,73.91
2023-04-22T01:34:52.266Z,74.52
2023-04-22T01:35:52.565Z,74.73
2023-04-22T01:36:52.241Z,75.07
2023-04-22T01:37:52.235Z,75.38
2023-04-22T01:38:52.221Z,75.59
2023-04-22T01:39:52.210Z,75.68
2023-04-22T01:40:52.467Z,75.89
2023-04-22T01:41:52.188Z,75.89
2023-04-22T01:42:52.202Z,76.20
2023-04-22T01:43:52.159Z,76.09
2023-04-22T01:44:52.160Z,76.34
2023-04-22T01:45:52.483Z,76.43
2023-04-22T01:46:52.137Z,76.64
2023-04-22T01:47:52.168Z,76.34
2023-04-22T01:48:52.145Z,76.54
2023-04-22T01:49:52.102Z,76.95
2023-04-22T01:50:52.359Z,76.84
2023-04-22T01:51:52.080Z,77.05
2023-04-22T01:52:52.078Z,77.19
2023-04-22T01:53:52.065Z,77.29
2023-04-22T01:54:52.057Z,77.60
2023-04-22T01:55:52.509Z,77.91
2023-04-22T01:56:52.025Z,78.11
2023-04-22T01:57:52.018Z,78.42
2023-04-22T01:58:52.014Z,78.21
2023-04-22T01:59:51.996Z,78.56
2023-04-22T02:00:52.354Z,78.86
2023-04-22T02:01:52.062Z,78.63
2023-04-22T02:02:52.037Z,78.52
2023-04-22T02:03:52.071Z,78.83
2023-04-22T02:04:52.031Z,78.35
2023-04-22T02:05:52.350Z,78.42
2023-04-22T02:06:51.931Z,78.63
2023-04-22T02:07:51.911Z,78.21
2023-04-22T02:08:51.912Z,78.21
2023-04-22T02:09:51.890Z,77.91
2023-04-22T02:10:52.206Z,77.80
2023-04-22T02:11:51.867Z,77.76
2023-04-22T02:12:51.868Z,77.67
2023-04-22T02:13:51.849Z,77.97
2023-04-22T02:14:51.849Z,77.15
2023-04-22T02:15:51.891Z,77.67
2023-04-22T02:16:52.201Z,77.46
2023-04-22T02:17:51.811Z,77.67
2023-04-22T02:18:51.805Z,77.87
2023-04-22T02:19:51.839Z,77.67
2023-04-22T02:20:51.782Z,78.08
2023-04-22T02:21:52.088Z,78.31
2023-04-22T02:22:51.758Z,77.91
2023-04-22T02:23:51.746Z,77.91
2023-04-22T02:24:51.745Z,77.15
2023-04-22T02:25:51.730Z,76.84
2023-04-22T02:26:51.733Z,76.75
2023-04-22T02:27:51.709Z,76.75
2023-04-22T02:28:51.701Z,76.34
2023-04-22T02:29:51.691Z,76.81
2023-04-22T02:30:51.681Z,76.75
2023-04-22T02:31:52.098Z,77.15
2023-04-22T02:32:51.742Z,77.46
2023-04-22T02:33:51.653Z,77.15
2023-04-22T02:34:51.660Z,77.26
2023-04-22T02:35:51.627Z,77.15
2023-04-22T02:36:52.021Z,77.36
2023-04-22T02:37:51.607Z,77.15
2023-04-22T02:38:51.605Z,77.36
2023-04-22T02:39:51.579Z,77.05
2023-04-22T02:40:51.582Z,77.36
2023-04-22T02:41:51.914Z,77.97
2023-04-22T02:42:51.570Z,78.17
2023-04-22T02:43:51.555Z,78.38
2023-04-22T02:44:51.552Z,78.31
2023-04-22T02:45:51.523Z,78.31
2023-04-22T02:46:51.912Z,78.21
2023-04-22T02:47:51.535Z,78.11
2023-04-22T02:48:51.498Z,78.31
2023-04-22T02:49:51.485Z,78.52
2023-04-22T02:50:51.480Z,78.72
2023-04-22T02:51:51.801Z,79.13
2023-04-22T02:52:51.479Z,79.13
2023-04-22T02:53:51.439Z,79.13
2023-04-22T02:54:51.434Z,79.24
2023-04-22T02:55:51.437Z,78.93
2023-04-22T02:56:51.440Z,79.64
2023-04-22T02:57:51.407Z,79.68
2023-04-22T02:58:51.409Z,79.79
2023-04-22T02:59:51.384Z,79.79
2023-04-22T03:00:51.408Z,79.89
2023-04-22T03:01:51.730Z,79.79
2023-04-22T03:02:51.566Z,79.89
2023-04-22T03:03:51.506Z,79.79
2023-04-22T03:04:51.337Z,79.68
2023-04-22T03:05:51.314Z,79.68
2023-04-22T03:06:51.603Z,79.99
2023-04-22T03:07:51.307Z,80.09
2023-04-22T03:08:51.303Z,80.60
2023-04-22T03:09:51.293Z,80.40
2023-04-22T03:10:51.281Z,80.54
2023-04-22T03:11:51.793Z,80.23
2023-04-22T03:12:51.256Z,80.44
2023-04-22T03:13:51.259Z,80.54
2023-04-22T03:14:51.244Z,80.23
2023-04-22T03:15:51.230Z,80.44
2023-04-22T03:16:51.685Z,80.85
2023-04-22T03:17:51.282Z,80.95
2023-04-22T03:18:51.210Z,81.57
2023-04-22T03:19:51.195Z,82.28
2023-04-22T03:20:51.177Z,82.49
2023-04-22T03:21:51.529Z,82.79
2023-04-22T03:22:51.170Z,83.04
2023-04-22T03:23:51.153Z,82.83
2023-04-22T03:24:51.152Z,83.55
2023-04-22T03:25:51.140Z,82.73
2023-04-22T03:26:51.537Z,82.32
2023-04-22T03:27:51.136Z,81.98
2023-04-22T03:28:51.134Z,82.08
2023-04-22T03:29:51.053Z,82.39
2023-04-22T03:30:51.096Z,81.57
2023-04-22T03:31:51.428Z,81.36
2023-04-22T03:32:51.120Z,81.36
2023-04-22T03:33:51.082Z,81.36
2023-04-22T03:34:51.068Z,81.57
2023-04-22T03:35:51.056Z,81.67
2023-04-22T03:36:51.353Z,81.77
2023-04-22T03:37:51.006Z,82.08
2023-04-22T03:38:50.979Z,81.67
2023-04-22T03:39:51.030Z,81.26
2023-04-22T03:40:51.725Z,81.63
2023-04-22T03:41:51.316Z,81.94
2023-04-22T03:42:50.996Z,81.84
2023-04-22T03:43:50.997Z,81.73
2023-04-22T03:44:50.970Z,81.63
2023-04-22T03:45:50.963Z,81.63
2023-04-22T03:46:51.272Z,81.73
2023-04-22T03:47:50.965Z,81.94
2023-04-22T03:48:50.886Z,81.73
2023-04-22T03:49:50.877Z,81.63
2023-04-22T03:50:50.860Z,82.24
2023-04-22T03:51:51.196Z,82.55
2023-04-22T03:52:50.850Z,82.55
2023-04-22T03:53:50.842Z,82.35
2023-04-22T03:54:50.831Z,81.94
2023-04-22T03:55:50.819Z,81.52
2023-04-22T03:56:51.367Z,81.73
2023-04-22T03:57:50.808Z,81.63
2023-04-22T03:58:50.806Z,81.52
2023-04-22T03:59:50.789Z,81.12
2023-04-22T04:00:50.777Z,81.01
2023-04-22T04:01:51.110Z,81.12
2023-04-22T04:02:50.866Z,81.52
2023-04-22T04:03:50.885Z,81.52
2023-04-22T04:04:51.203Z,81.63
2023-04-22T04:05:50.770Z,81.63
2023-04-22T04:06:51.023Z,81.52
2023-04-22T04:07:50.713Z,81.43
2023-04-22T04:08:50.703Z,81.63
2023-04-22T04:09:50.708Z,81.84
2023-04-22T04:10:50.688Z,81.73
2023-04-22T04:11:51.047Z,81.73
2023-04-22T04:12:50.666Z,81.63
2023-04-22T04:13:50.671Z,81.73
2023-04-22T04:14:50.654Z,82.35
2023-04-22T04:15:50.683Z,81.94
2023-04-22T04:16:50.973Z,82.24
2023-04-22T04:17:50.758Z,81.94
2023-04-22T04:18:50.608Z,82.45
2023-04-22T04:19:50.612Z,82.96
2023-04-22T04:20:50.597Z,82.90
2023-04-22T04:21:50.963Z,82.69
2023-04-22T04:22:50.579Z,82.28
2023-04-22T04:23:50.575Z,82.28
2023-04-22T04:24:50.575Z,82.18
2023-04-22T04:25:50.557Z,82.59
2023-04-22T04:26:50.890Z,82.79
2023-04-22T04:27:50.536Z,82.90
2023-04-22T04:28:50.534Z,82.69
2023-04-22T04:29:50.528Z,82.39
2023-04-22T04:30:50.538Z,82.28
2023-04-22T04:31:50.993Z,82.39
2023-04-22T04:32:50.523Z,82.42
2023-04-22T04:33:50.484Z,82.42
2023-04-22T04:34:50.477Z,82.63
2023-04-22T04:35:50.469Z,82.93
2023-04-22T04:36:50.762Z,82.73
2023-04-22T04:37:50.453Z,82.83
2023-04-22T04:38:50.442Z,83.04
2023-04-22T04:39:50.437Z,83.14
2023-04-22T04:40:50.418Z,83.04
2023-04-22T04:41:50.716Z,83.25
2023-04-22T04:42:50.399Z,83.65
2023-04-22T04:43:50.395Z,83.55
2023-04-22T04:44:50.378Z,83.76
2023-04-22T04:45:50.373Z,83.90
2023-04-22T04:46:50.756Z,84.10
2023-04-22T04:47:50.377Z,84.31
2023-04-22T04:48:50.338Z,84.20
2023-04-22T04:49:50.343Z,84.20
2023-04-22T04:50:50.332Z,84.41
2023-04-22T04:51:50.613Z,84.72
2023-04-22T04:52:50.306Z,84.61
2023-04-22T04:53:50.299Z,84.72
2023-04-22T04:54:50.288Z,84.72
2023-04-22T04:55:50.287Z,84.61
2023-04-22T04:56:50.608Z,84.52
2023-04-22T04:57:50.266Z,84.52
2023-04-22T04:58:50.249Z,84.41
2023-04-22T04:59:50.251Z,84.52
2023-04-22T05:00:50.263Z,84.41
2023-04-22T05:01:50.648Z,84.92
2023-04-22T05:02:50.313Z,84.88
2023-04-22T05:03:50.382Z,84.88
2023-04-22T05:04:50.274Z,84.78
2023-04-22T05:05:50.205Z,84.68
2023-04-22T05:06:50.502Z,84.37
2023-04-22T05:07:50.186Z,84.64
2023-04-22T05:08:50.170Z,84.95
2023-04-22T05:09:50.165Z,84.64
2023-04-22T05:10:50.160Z,84.53
2023-04-22T05:11:50.405Z,84.74
2023-04-22T05:12:50.140Z,84.84
2023-04-22T05:13:50.136Z,84.74
2023-04-22T05:14:50.121Z,84.74
2023-04-22T05:15:50.115Z,84.60
2023-04-22T05:16:50.573Z,84.50
2023-04-22T05:17:50.151Z,84.50
2023-04-22T05:18:50.088Z,84.19
2023-04-22T05:19:50.090Z,83.78
2023-04-22T05:20:50.085Z,83.47
2023-04-22T05:21:50.463Z,83.27
2023-04-22T05:22:50.048Z,83.47
2023-04-22T05:23:50.040Z,84.39
2023-04-22T05:24:50.032Z,84.56
2023-04-22T05:25:52.056Z,84.56
2023-04-22T05:26:50.348Z,84.05
2023-04-22T05:27:50.002Z,83.84
2023-04-22T05:28:49.986Z,83.84
2023-04-22T05:29:49.984Z,83.84
2023-04-22T05:30:49.966Z,84.15
2023-04-22T05:31:50.319Z,83.81
2023-04-22T05:32:50.034Z,83.50
2023-04-22T05:33:49.941Z,83.19
2023-04-22T05:34:49.928Z,83.70
2023-04-22T05:35:49.916Z,82.68
2023-04-22T05:36:50.350Z,82.03
2023-04-22T05:37:49.931Z,82.54
2023-04-22T05:38:49.895Z,84.28
2023-04-22T05:39:49.872Z,83.97
2023-04-22T05:40:49.857Z,83.01
2023-04-22T05:41:49.855Z,82.91
2023-04-22T05:42:50.175Z,82.60
2023-04-22T05:43:49.826Z,81.07
2023-04-22T05:44:49.827Z,81.07
2023-04-22T05:45:49.830Z,80.62
2023-04-22T05:46:49.817Z,81.44
2023-04-22T05:47:49.833Z,82.05
2023-04-22T05:48:49.782Z,82.56
2023-04-22T05:49:49.775Z,81.71
2023-04-22T05:50:49.757Z,81.71
2023-04-22T05:51:49.741Z,81.91
2023-04-22T05:52:50.101Z,81.30
2023-04-22T05:53:49.762Z,81.37
2023-04-22T05:54:49.711Z,80.85
2023-04-22T05:55:49.704Z,80.75
2023-04-22T05:56:49.693Z,81.32
2023-04-22T05:57:49.849Z,82.14
2023-04-22T05:58:49.666Z,83.37
2023-04-22T05:59:49.665Z,82.71
2023-04-22T06:00:49.649Z,81.09
2023-04-22T06:01:49.645Z,80.43
2023-04-22T06:02:50.514Z,80.23
2023-04-22T06:03:49.805Z,78.91
2023-04-22T06:04:49.950Z,78.80
2023-04-22T06:05:49.692Z,78.87
2023-04-22T06:06:49.586Z,79.48
2023-04-22T06:07:49.926Z,77.91
2023-04-22T06:08:49.567Z,77.81
2023-04-22T06:09:49.565Z,79.64
2023-04-22T06:10:49.554Z,80.42
2023-04-22T06:11:49.545Z,79.61
2023-04-22T06:12:49.692Z,79.68
2023-04-22T06:13:49.520Z,76.92
2023-04-22T06:14:49.508Z,76.38
2023-04-22T06:15:49.525Z,75.16
2023-04-22T06:16:49.488Z,75.46
2023-04-22T06:17:50.335Z,76.04
2023-04-22T06:18:49.477Z,75.43
2023-04-22T06:19:49.453Z,75.73
2023-04-22T06:20:49.438Z,75.70
2023-04-22T06:21:49.430Z,72.85
2023-04-22T06:22:49.716Z,73.63
2023-04-22T06:23:49.406Z,76.88
2023-04-22T06:24:49.386Z,77.25
2023-04-22T06:25:49.392Z,73.39
2023-04-22T06:26:49.363Z,75.12
2023-04-22T06:27:49.870Z,71.33
2023-04-22T06:28:49.357Z,69.60
2023-04-22T06:29:49.336Z,69.20
2023-04-22T06:30:49.314Z,66.83
2023-04-22T06:31:49.425Z,65.92
2023-04-22T06:32:50.082Z,65.52
2023-04-22T06:33:49.291Z,65.28
2023-04-22T06:34:49.262Z,63.76
2023-04-22T06:35:49.271Z,63.76
2023-04-22T06:36:49.248Z,63.12
2023-04-22T06:37:49.551Z,62.52
2023-04-22T06:38:49.220Z,61.58
2023-04-22T06:39:49.232Z,61.58
2023-04-22T06:40:49.207Z,61.17
2023-04-22T06:41:49.201Z,61.35
2023-04-22T06:42:49.584Z,60.61
2023-04-22T06:43:49.169Z,60.68
2023-04-22T06:44:49.153Z,60.17
2023-04-22T06:45:49.145Z,58.93
2023-04-22T06:46:49.195Z,59.56
2023-04-22T06:47:49.993Z,59.67
2023-04-22T06:48:49.103Z,59.87
2023-04-22T06:49:49.101Z,59.54
2023-04-22T06:50:49.098Z,59.84
2023-04-22T06:51:49.089Z,60.96
2023-04-22T06:52:49.409Z,59.84
2023-04-22T06:53:49.057Z,59.64
2023-04-22T06:54:49.047Z,58.93
2023-04-22T06:55:49.037Z,59.23
2023-04-22T06:56:49.027Z,60.14
2023-04-22T06:57:49.328Z,61.16
2023-04-22T06:58:49.012Z,59.84
2023-04-22T06:59:49.000Z,59.64
2023-04-22T07:00:48.985Z,59.74
2023-04-22T07:01:49.038Z,59.74
2023-04-22T07:02:49.762Z,57.92
2023-04-22T07:03:49.033Z,58.53
2023-04-22T07:04:48.957Z,58.43
2023-04-22T07:05:48.930Z,58.73
2023-04-22T07:06:48.926Z,58.53
2023-04-22T07:07:49.303Z,57.82
2023-04-22T07:08:48.894Z,58.43
2023-04-22T07:09:48.898Z,58.09
2023-04-22T07:10:48.883Z,57.79
2023-04-22T07:11:48.866Z,58.43
2023-04-22T07:12:49.191Z,59.94
2023-04-22T07:13:48.849Z,58.02
2023-04-22T07:14:48.837Z,58.12
2023-04-22T07:15:48.826Z,58.23
2023-04-22T07:16:48.992Z,58.12
2023-04-22T07:17:49.584Z,58.33
2023-04-22T07:18:48.791Z,58.23
2023-04-22T07:19:48.789Z,58.63
2023-04-22T07:20:48.770Z,59.23
2023-04-22T07:21:48.766Z,59.64
2023-04-22T07:22:49.231Z,58.93
2023-04-22T07:23:48.778Z,59.34
2023-04-22T07:24:48.726Z,58.93
2023-04-22T07:25:48.722Z,58.53
2023-04-22T07:26:48.709Z,58.93
2023-04-22T07:27:49.132Z,58.63
2023-04-22T07:28:48.688Z,57.52
2023-04-22T07:29:48.692Z,59.84
2023-04-22T07:30:48.698Z,59.31
2023-04-22T07:31:48.688Z,59.81
2023-04-22T07:32:49.293Z,57.79
2023-04-22T07:33:48.644Z,58.20
2023-04-22T07:34:48.620Z,58.70
2023-04-22T07:35:48.634Z,57.79
2023-04-22T07:36:48.602Z,57.89
2023-04-22T07:37:48.851Z,57.79
2023-04-22T07:38:48.586Z,59.58
2023-04-22T07:39:48.576Z,58.17
2023-04-22T07:40:48.568Z,57.56
2023-04-22T07:41:48.557Z,56.35
2023-04-22T07:42:48.899Z,55.94
2023-04-22T07:43:48.535Z,56.96
2023-04-22T07:44:48.527Z,57.43
2023-04-22T07:45:48.523Z,57.64
2023-04-22T07:46:48.507Z,56.63
2023-04-22T07:47:48.824Z,56.12
2023-04-22T07:48:48.485Z,55.72
2023-04-22T07:49:48.466Z,56.60
2023-04-22T07:50:48.458Z,55.69
2023-04-22T07:51:48.448Z,56.20
2023-04-22T07:52:48.758Z,55.97
2023-04-22T07:53:48.436Z,55.26
2023-04-22T07:54:48.423Z,55.36
2023-04-22T07:55:48.411Z,55.06
2023-04-22T07:56:48.402Z,54.43
2023-04-22T07:57:48.753Z,54.53
2023-04-22T07:58:48.378Z,56.75
2023-04-22T07:59:48.367Z,56.02
2023-04-22T08:00:48.441Z,55.21
2023-04-22T08:01:48.349Z,54.88
2023-04-22T08:02:48.730Z,54.08
2023-04-22T08:03:48.646Z,56.29
2023-04-22T08:04:48.378Z,54.58
2023-04-22T08:05:48.303Z,53.14
2023-04-22T08:06:48.306Z,53.25
2023-04-22T08:07:48.622Z,57.68
2023-04-22T08:08:48.280Z,57.24
2023-04-22T08:09:48.268Z,54.43
2023-04-22T08:10:48.264Z,54.03
2023-04-22T08:11:48.249Z,53.09
2023-04-22T08:12:48.571Z,52.59
2023-04-22T08:13:48.237Z,51.36
2023-04-22T08:14:48.225Z,53.85
2023-04-22T08:15:48.289Z,51.04
2023-04-22T08:16:48.200Z,51.34
2023-04-22T08:17:48.297Z,50.71
2023-04-22T08:18:48.177Z,50.68
2023-04-22T08:19:48.167Z,49.48
2023-04-22T08:20:48.155Z,49.26
2023-04-22T08:21:48.146Z,48.46
2023-04-22T08:22:48.418Z,50.04
2023-04-22T08:23:48.137Z,48.13
2023-04-22T08:24:48.129Z,51.94
2023-04-22T08:25:48.107Z,51.12
2023-04-22T08:26:48.109Z,49.11
2023-04-22T08:27:48.571Z,48.28
2023-04-22T08:28:48.081Z,47.69
2023-04-22T08:29:48.063Z,46.98
2023-04-22T08:30:48.051Z,46.88
2023-04-22T08:31:48.060Z,47.99
2023-04-22T08:32:48.334Z,47.19
2023-04-22T08:33:48.017Z,46.98
2023-04-22T08:34:51.576Z,46.38
2023-04-22T08:35:47.994Z,47.88
2023-04-22T08:36:47.994Z,47.00
2023-04-22T08:37:48.297Z,48.89
2023-04-22T08:38:50.039Z,47.66
2023-04-22T08:39:47.954Z,47.36
2023-04-22T08:40:47.958Z,47.61
2023-04-22T08:41:47.935Z,45.01
2023-04-22T08:42:47.950Z,44.49
2023-04-22T08:43:47.918Z,46.09
2023-04-22T08:44:47.912Z,47.99
2023-04-22T08:45:47.892Z,47.67
2023-04-22T08:46:47.899Z,46.37
2023-04-22T08:47:48.875Z,44.35
2023-04-22T08:48:47.861Z,44.93
2023-04-22T08:49:47.870Z,43.21
2023-04-22T08:50:47.880Z,43.11
2023-04-22T08:51:47.835Z,43.53
2023-04-22T08:52:47.846Z,43.43
2023-04-22T08:53:47.814Z,43.25
2023-04-22T08:54:47.808Z,46.62
2023-04-22T08:55:47.793Z,45.43
2023-04-22T08:56:47.788Z,45.85
2023-04-22T08:57:48.125Z,49.05
2023-04-22T08:58:47.768Z,45.45
2023-04-22T08:59:47.749Z,43.55
2023-04-22T09:00:47.738Z,43.93
2023-04-22T09:01:47.749Z,45.23
2023-04-22T09:02:48.598Z,43.61
2023-04-22T09:03:47.769Z,47.60
2023-04-22T09:04:47.707Z,43.09
2023-04-22T09:05:47.693Z,42.47
2023-04-22T09:06:47.681Z,42.67
2023-04-22T09:07:47.996Z,44.15
2023-04-22T09:08:47.666Z,43.75
2023-04-22T09:09:47.647Z,41.16
2023-04-22T09:10:47.640Z,41.28
2023-04-22T09:11:47.630Z,42.55
2023-04-22T09:12:48.005Z,41.44
2023-04-22T09:13:47.608Z,41.91
2023-04-22T09:14:47.603Z,44.48
2023-04-22T09:15:47.592Z,40.60
2023-04-22T09:16:47.775Z,40.50
2023-04-22T09:17:47.610Z,40.28
2023-04-22T09:18:47.659Z,39.31
2023-04-22T09:19:47.579Z,40.14
2023-04-22T09:20:47.538Z,41.85
2023-04-22T09:21:49.892Z,41.97
2023-04-22T09:22:47.543Z,42.45
2023-04-22T09:23:47.506Z,41.66
2023-04-22T09:24:47.497Z,42.73
2023-04-22T09:25:47.482Z,42.83
2023-04-22T09:26:47.478Z,41.91
2023-04-22T09:27:48.110Z,39.94
2023-04-22T09:28:47.456Z,41.36
2023-04-22T09:29:47.441Z,40.94
2023-04-22T09:30:47.447Z,41.66
2023-04-22T09:31:47.447Z,40.95
2023-04-22T09:32:48.428Z,41.66
2023-04-22T09:33:49.551Z,41.46
2023-04-22T09:34:47.394Z,42.15
2023-04-22T09:35:47.386Z,41.06
2023-04-22T09:36:47.375Z,43.55
2023-04-22T09:37:49.553Z,42.13
2023-04-22T09:38:47.382Z,39.84
2023-04-22T09:39:48.664Z,40.14
2023-04-22T09:40:47.344Z,39.86
2023-04-22T09:41:47.328Z,40.16
2023-04-22T09:42:47.333Z,40.58
2023-04-22T09:43:47.302Z,43.17
2023-04-22T09:44:47.305Z,42.57
2023-04-22T09:45:47.312Z,42.55
2023-04-22T09:46:47.282Z,41.66
2023-04-22T09:47:47.467Z,41.08
2023-04-22T09:48:47.280Z,41.75
2023-04-22T09:49:47.244Z,42.75
2023-04-22T09:50:47.236Z,40.56
2023-04-22T09:51:49.343Z,43.65
2023-04-22T09:52:47.523Z,41.16
2023-04-22T09:53:47.204Z,41.36
2023-04-22T09:54:47.196Z,41.36
2023-04-22T09:55:47.190Z,41.83
2023-04-22T09:56:47.178Z,40.54
2023-04-22T09:57:47.518Z,41.03
2023-04-22T09:58:47.149Z,40.18
2023-04-22T09:59:47.134Z,40.38
2023-04-22T10:00:47.128Z,41.36
2023-04-22T10:01:47.152Z,42.85
2023-04-22T10:02:47.266Z,40.68
2023-04-22T10:03:47.108Z,39.98
2023-04-22T10:04:47.090Z,42.99
2023-04-22T10:05:47.088Z,44.59
2023-04-22T10:06:47.148Z,46.38
2023-04-22T10:07:47.240Z,42.69
2023-04-22T10:08:47.144Z,45.51
2023-04-22T10:09:47.118Z,42.21
2023-04-22T10:10:47.031Z,43.11
2023-04-22T10:11:47.383Z,44.71
2023-04-22T10:12:47.021Z,44.81
2023-04-22T10:13:46.997Z,44.38
2023-04-22T10:14:46.993Z,42.10
2023-04-22T10:15:46.977Z,44.09
2023-04-22T10:16:47.004Z,42.79
2023-04-22T10:17:47.026Z,41.60
2023-04-22T10:18:46.952Z,42.11
2023-04-22T10:19:46.938Z,41.19
2023-04-22T10:20:46.935Z,41.89
2023-04-22T10:21:46.920Z,47.28
2023-04-22T10:22:46.918Z,44.61
2023-04-22T10:23:46.887Z,43.01
2023-04-22T10:24:46.900Z,41.41
2023-04-22T10:25:46.874Z,41.50
2023-04-22T10:26:46.869Z,42.99
2023-04-22T10:27:46.856Z,44.19
2023-04-22T10:28:46.843Z,40.10
2023-04-22T10:29:46.836Z,42.47
2023-04-22T10:30:46.863Z,41.08
2023-04-22T10:31:46.818Z,46.14
2023-04-22T10:32:46.871Z,40.56
2023-04-22T10:33:46.783Z,41.75
2023-04-22T10:34:46.786Z,42.25
2023-04-22T10:35:46.768Z,41.66
2023-04-22T10:36:46.759Z,43.65
2023-04-22T10:37:46.760Z,40.46
2023-04-22T10:38:46.739Z,40.46
2023-04-22T10:39:46.729Z,39.76
2023-04-22T10:40:46.715Z,41.16
2023-04-22T10:41:46.700Z,41.06
2023-04-22T10:42:46.711Z,40.06
2023-04-22T10:43:46.691Z,39.64
2023-04-22T10:44:46.683Z,39.62
2023-04-22T10:45:46.659Z,38.43
2023-04-22T10:46:46.660Z,38.93
2023-04-22T10:47:46.663Z,40.74
2023-04-22T10:48:46.640Z,39.83
2023-04-22T10:49:46.629Z,39.12
2023-04-22T10:50:46.616Z,38.93
2023-04-22T10:51:46.612Z,38.53
2023-04-22T10:52:46.615Z,39.21
2023-04-22T10:53:46.588Z,41.09
2023-04-22T10:54:46.585Z,38.91
2023-04-22T10:55:46.560Z,37.81
2023-04-22T10:56:51.852Z,38.51
2023-04-22T10:57:46.939Z,36.74
2023-04-22T10:58:46.538Z,37.35
2023-04-22T11:00:53.980Z,37.65
2023-04-22T11:01:46.522Z,37.15
2023-04-22T11:02:46.743Z,38.45
2023-04-22T11:03:46.552Z,39.46
2023-04-22T11:04:46.494Z,38.78
2023-04-22T11:05:46.465Z,39.10
2023-04-22T11:06:46.456Z,39.50
2023-04-22T11:07:46.782Z,38.72
2023-04-22T11:08:46.452Z,40.70
2023-04-22T11:09:46.432Z,40.20
2023-04-22T11:10:46.482Z,38.90
2023-04-22T11:11:46.398Z,42.40
2023-04-22T11:12:46.720Z,41.89
2023-04-22T11:13:46.377Z,40.88
2023-04-22T11:14:46.387Z,39.78
2023-04-22T11:15:46.374Z,39.16
2023-04-22T11:16:46.444Z,40.46
2023-04-22T11:17:46.796Z,38.54
2023-04-22T11:18:46.335Z,37.95
2023-04-22T11:19:46.318Z,40.44
2023-04-22T11:20:46.315Z,38.75
2023-04-22T11:21:46.304Z,41.02
2023-04-22T11:22:46.816Z,38.54
2023-04-22T11:23:46.274Z,39.64
2023-04-22T11:24:46.272Z,38.37
2023-04-22T11:25:46.262Z,38.27
2023-04-22T11:26:46.253Z,39.26
2023-04-22T11:27:46.436Z,39.76
2023-04-22T11:28:46.232Z,40.64
2023-04-22T11:29:46.219Z,37.25
2023-04-22T11:30:46.216Z,38.84
2023-04-22T11:31:46.229Z,38.27
2023-04-22T11:32:46.603Z,39.88
2023-04-22T11:33:47.305Z,38.29
2023-04-22T11:34:46.171Z,38.78
2023-04-22T11:35:46.160Z,39.48
2023-04-22T11:36:46.156Z,39.70
2023-04-22T11:37:46.156Z,38.40
2023-04-22T11:38:46.125Z,38.50
2023-04-22T11:40:01.907Z,41.19
2023-04-22T11:40:47.228Z,39.70
2023-04-22T11:41:46.146Z,38.60
2023-04-22T11:42:46.122Z,39.10
2023-04-22T11:43:46.149Z,38.31
2023-04-22T11:44:46.070Z,37.90
2023-04-22T11:45:46.071Z,37.51
2023-04-22T11:46:46.056Z,39.10
2023-04-22T11:47:46.204Z,39.20
2023-04-22T11:48:46.029Z,38.32
2023-04-22T11:49:46.014Z,39.22
2023-04-22T11:50:46.009Z,39.92
2023-04-22T11:51:46.001Z,38.40
2023-04-22T11:52:46.016Z,39.40
2023-04-22T11:53:45.973Z,37.81
2023-04-22T11:54:45.965Z,38.70
2023-04-22T11:55:45.972Z,39.90
2023-04-22T11:56:45.969Z,40.10
2023-04-22T11:57:45.960Z,37.10
2023-04-22T11:58:45.920Z,38.09
2023-04-22T11:59:45.921Z,37.67
2023-04-22T12:00:45.904Z,38.07
2023-04-22T12:01:45.895Z,38.25
2023-04-22T12:02:46.130Z,36.35
2023-04-22T12:03:46.130Z,35.34
2023-04-22T12:04:46.198Z,36.74
2023-04-22T12:05:45.853Z,37.02
2023-04-22T12:06:45.835Z,37.81
2023-04-22T12:07:45.833Z,35.61
2023-04-22T12:08:45.819Z,34.91
2023-04-22T12:09:46.310Z,34.41
2023-04-22T12:10:45.798Z,34.31
2023-04-22T12:11:45.798Z,36.68
2023-04-22T12:12:45.782Z,35.79
2023-04-22T12:13:45.776Z,34.31
2023-04-22T12:14:46.059Z,35.01
2023-04-22T12:15:45.770Z,33.52
2023-04-22T12:16:45.834Z,34.22
2023-04-22T12:17:46.391Z,32.92
2023-04-22T12:18:45.719Z,33.90
2023-04-22T12:19:45.717Z,32.81
2023-04-22T12:20:45.708Z,33.60
2023-04-22T12:21:45.688Z,32.81
2023-04-22T12:22:46.046Z,32.99
2023-04-22T12:23:45.668Z,33.59
2023-04-22T12:24:45.655Z,33.78
2023-04-22T12:25:45.655Z,36.15
2023-04-22T12:26:45.648Z,36.33
2023-04-22T12:27:45.645Z,35.83
2023-04-22T12:28:45.631Z,35.14
2023-04-22T12:29:45.609Z,34.15
2023-04-22T12:30:45.613Z,33.47
2023-04-22T12:31:45.592Z,34.36
2023-04-22T12:32:45.794Z,35.06
2023-04-22T12:33:45.582Z,34.48
2023-04-22T12:34:45.562Z,35.01
2023-04-22T12:35:45.556Z,37.30
2023-04-22T12:36:45.534Z,37.60
2023-04-22T12:37:45.741Z,36.42
2023-04-22T12:38:45.527Z,34.81
2023-04-22T12:39:45.521Z,35.50
2023-04-22T12:40:45.499Z,35.50
2023-04-22T12:41:45.492Z,34.50
2023-04-22T12:43:06.933Z,35.21
2023-04-22T12:43:45.487Z,35.13
2023-04-22T12:44:45.458Z,36.24
2023-04-22T12:45:45.456Z,36.02
2023-04-22T12:46:45.475Z,35.11
2023-04-22T12:47:45.487Z,35.71
2023-04-22T12:48:45.418Z,34.40
2023-04-22T12:49:47.054Z,34.28
2023-04-22T12:50:45.406Z,35.27
2023-04-22T12:51:45.388Z,33.47
2023-04-22T12:52:45.848Z,31.50
2023-04-22T12:53:45.377Z,30.59